Time;durP1;ratioP1;P1;durP2;ratioP2;P2;SDS_P1;SDS_P2;PMS_P1;PMS_P2;Temp;Humidity;BMP_temperature;BMP_pressure;BME280_temperature;BME280_humidity;BME280_pressure;Samples;Min_cycle;Max_cycle;Signal;HPM_P1;HPM_P2
2024/03/03 00:00:24;;;;;;;31.63;17.63;;;;;;;;;;6221843;23;20008;-78
2024/03/03 00:02:51;;;;;;;33.13;15.77;;;;;;;;;;6219522;23;20039;-77
2024/03/03 00:05:19;;;;;;;27.15;18.85;;;;;;;;;;6247368;23;20020;-78
2024/03/03 00:07:46;;;;;;;36.00;17.73;;;;;;;;;;6224651;23;20008;-77
2024/03/03 00:10:16;;;;;;;30.98;19.30;;;;;;;;;;6248622;23;20020;-77
2024/03/03 00:12:42;;;;;;;33.50;19.38;;;;;;;;;;6246939;23;20018;-78
2024/03/03 00:15:09;;;;;;;23.85;14.85;;;;;;;;;;6219661;23;20522;-78
2024/03/03 00:17:36;;;;;;;20.33;13.88;;;;;;;;;;6196728;23;20043;-78
2024/03/03 00:20:04;;;;;;;22.80;13.27;;;;;;;;;;6223699;23;20012;-77
2024/03/03 00:22:34;;;;;;;16.88;11.98;;;;;;;;;;6198441;23;20016;-78
2024/03/03 00:25:00;;;;;;;17.35;11.95;;;;;;;;;;6219868;23;20076;-78
2024/03/03 00:27:29;;;;;;;25.92;13.00;;;;;;;;;;6253260;23;20023;-79
2024/03/03 00:29:55;;;;;;;18.83;10.32;;;;;;;;;;6228391;23;20012;-79
2024/03/03 00:32:21;;;;;;;15.95;11.75;;;;;;;;;;6231041;23;20058;-80
2024/03/03 00:34:47;;;;;;;21.40;12.88;;;;;;;;;;6227748;23;20051;-79
2024/03/03 00:37:18;;;;;;;22.50;13.18;;;;;;;;;;6203205;23;20008;-80
2024/03/03 00:39:45;;;;;;;18.27;7.32;;;;;;;;;;6257209;23;20064;-78
2024/03/03 00:42:13;;;;;;;17.67;11.20;;;;;;;;;;6207254;23;20028;-78
2024/03/03 00:44:39;;;;;;;16.40;11.85;;;;;;;;;;6254013;23;20020;-79
2024/03/03 00:47:06;;;;;;;18.75;11.57;;;;;;;;;;6254813;23;20062;-79
2024/03/03 00:49:35;;;;;;;14.90;10.73;;;;;;;;;;6228481;23;20370;-79
2024/03/03 00:52:01;;;;;;;16.27;11.05;;;;;;;;;;6228144;23;20279;-78
2024/03/03 00:54:27;;;;;;;12.93;11.20;;;;;;;;;;6204205;23;20016;-79
2024/03/03 00:56:53;;;;;;;26.27;12.65;;;;;;;;;;6229947;23;20012;-80
2024/03/03 00:59:42;;;;;;;22.95;12.10;;;;;;;;;;6233464;23;20008;-79
2024/03/03 01:02:11;;;;;;;30.80;12.40;;;;;;;;;;6197992;23;20500;-78
2024/03/03 01:04:47;;;;;;;17.60;11.25;;;;;;;;;;6206415;23;20031;-79
2024/03/03 01:07:15;;;;;;;9.93;8.73;;;;;;;;;;6218780;23;20018;-79
2024/03/03 01:09:43;;;;;;;9.27;6.55;;;;;;;;;;6194762;23;20360;-78
2024/03/03 01:12:09;;;;;;;15.95;9.18;;;;;;;;;;6218154;23;20031;-77
2024/03/03 01:14:36;;;;;;;16.70;11.57;;;;;;;;;;6165116;23;20082;-78
2024/03/03 01:17:02;;;;;;;16.63;10.68;;;;;;;;;;6219623;23;20009;-78
2024/03/03 01:19:28;;;;;;;15.32;9.73;;;;;;;;;;6168856;23;20072;-77
2024/03/03 01:21:57;;;;;;;22.58;9.38;;;;;;;;;;6219419;23;20051;-77
2024/03/03 01:24:23;;;;;;;13.55;8.60;;;;;;;;;;6204860;23;20028;-76
2024/03/03 01:26:51;;;;;;;20.33;10.77;;;;;;;;;;6218771;23;20016;-77
2024/03/03 01:29:17;;;;;;;13.43;10.52;;;;;;;;;;6215599;23;20020;-77
2024/03/03 01:31:43;;;;;;;15.55;10.60;;;;;;;;;;6190139;23;20009;-79
2024/03/03 01:34:12;;;;;;;29.85;11.07;;;;;;;;;;6207313;23;20021;-78
2024/03/03 01:36:38;;;;;;;19.65;11.18;;;;;;;;;;6218552;23;20540;-79
2024/03/03 01:39:03;;;;;;;15.63;8.90;;;;;;;;;;6219966;23;20091;-78
2024/03/03 01:41:29;;;;;;;19.98;10.68;;;;;;;;;;6166296;23;20053;-78
2024/03/03 01:43:58;;;;;;;26.15;12.75;;;;;;;;;;6151034;23;20024;-79
2024/03/03 01:46:24;;;;;;;18.70;11.20;;;;;;;;;;6215570;23;20016;-80
2024/03/03 01:48:51;;;;;;;28.48;11.70;;;;;;;;;;6189532;23;20016;-79
2024/03/03 01:51:17;;;;;;;16.27;12.10;;;;;;;;;;6139904;23;20084;-79
2024/03/03 01:53:50;;;;;;;19.63;10.23;;;;;;;;;;6209603;23;20052;-78
2024/03/03 01:56:23;;;;;;;24.08;11.25;;;;;;;;;;6190917;23;20020;-79
2024/03/03 01:58:49;;;;;;;18.20;10.98;;;;;;;;;;6167648;23;20617;-78
2024/03/03 02:01:22;;;;;;;25.75;10.45;;;;;;;;;;6145161;23;20020;-78
2024/03/03 02:03:52;;;;;;;37.22;8.18;;;;;;;;;;6170011;23;20052;-79
2024/03/03 02:06:19;;;;;;;16.52;10.30;;;;;;;;;;6195257;23;20035;-79
2024/03/03 02:08:46;;;;;;;18.48;10.45;;;;;;;;;;6220513;23;20032;-79
2024/03/03 02:11:12;;;;;;;21.92;10.77;;;;;;;;;;6196312;23;20059;-78
2024/03/03 02:13:38;;;;;;;19.35;10.93;;;;;;;;;;6183931;23;20396;-78
2024/03/03 02:16:04;;;;;;;22.38;11.43;;;;;;;;;;6239546;23;20004;-78
2024/03/03 02:18:30;;;;;;;6.40;4.78;;;;;;;;;;6193771;23;20046;-78
2024/03/03 02:20:58;;;;;;;6.95;5.88;;;;;;;;;;6215288;23;20008;-78
2024/03/03 02:23:24;;;;;;;15.18;10.15;;;;;;;;;;6214624;23;20047;-77
2024/03/03 02:25:51;;;;;;;19.05;8.80;;;;;;;;;;6190209;23;20012;-77
2024/03/03 02:28:17;;;;;;;14.55;10.55;;;;;;;;;;6189440;23;20019;-78
2024/03/03 02:30:50;;;;;;;24.83;10.77;;;;;;;;;;6214358;23;20031;-77
2024/03/03 02:33:16;;;;;;;17.00;9.95;;;;;;;;;;6217399;23;20076;-78
2024/03/03 02:35:45;;;;;;;21.58;11.75;;;;;;;;;;6166020;23;20005;-77
2024/03/03 02:38:11;;;;;;;16.77;10.48;;;;;;;;;;6215051;23;20416;-77
2024/03/03 02:40:37;;;;;;;17.63;10.35;;;;;;;;;;6188781;23;20027;-76
2024/03/03 02:43:03;;;;;;;25.17;10.95;;;;;;;;;;6211995;23;20116;-76
2024/03/03 02:45:29;;;;;;;24.73;10.38;;;;;;;;;;6173864;23;20039;-76
2024/03/03 02:47:57;;;;;;;24.83;11.48;;;;;;;;;;6213823;23;20106;-77
2024/03/03 02:50:25;;;;;;;25.63;10.73;;;;;;;;;;6213486;23;20098;-76
2024/03/03 02:52:51;;;;;;;21.95;9.48;;;;;;;;;;6214738;23;20044;-76
2024/03/03 02:55:19;;;;;;;16.08;9.90;;;;;;;;;;6186604;23;20555;-76
2024/03/03 02:57:45;;;;;;;13.82;8.63;;;;;;;;;;6214011;23;20012;-75
2024/03/03 03:00:11;;;;;;;21.02;11.70;;;;;;;;;;6212222;23;20013;-75
2024/03/03 03:02:43;;;;;;;19.60;10.73;;;;;;;;;;6211011;23;20031;-76
2024/03/03 03:05:09;;;;;;;16.95;10.18;;;;;;;;;;6211821;23;20492;-76
2024/03/03 03:07:35;;;;;;;24.15;9.55;;;;;;;;;;6186652;23;20500;-76
2024/03/03 03:10:01;;;;;;;19.48;10.63;;;;;;;;;;6210963;23;20024;-75
2024/03/03 03:12:29;;;;;;;17.27;10.25;;;;;;;;;;6211945;23;20472;-75
2024/03/03 03:14:55;;;;;;;26.00;10.75;;;;;;;;;;6195385;23;20020;-75
2024/03/03 03:17:24;;;;;;;10.93;6.63;;;;;;;;;;6211642;23;20005;-76
2024/03/03 03:19:50;;;;;;;22.10;9.63;;;;;;;;;;6211977;23;20008;-77
2024/03/03 03:22:16;;;;;;;18.98;9.93;;;;;;;;;;6212790;23;20013;-77
2024/03/03 03:24:42;;;;;;;14.45;6.20;;;;;;;;;;6211138;23;20051;-77
2024/03/03 03:27:11;;;;;;;15.07;7.88;;;;;;;;;;6188373;23;20035;-77
2024/03/03 03:29:37;;;;;;;11.35;7.45;;;;;;;;;;6213876;23;20039;-77
2024/03/03 03:32:04;;;;;;;15.70;9.98;;;;;;;;;;6213673;23;20043;-77
2024/03/03 03:34:30;;;;;;;22.77;9.98;;;;;;;;;;6212936;23;20025;-77
2024/03/03 03:36:56;;;;;;;22.25;10.77;;;;;;;;;;6187832;23;20070;-75
2024/03/03 03:39:28;;;;;;;12.20;8.98;;;;;;;;;;6214233;23;20520;-76
2024/03/03 03:41:57;;;;;;;18.27;11.30;;;;;;;;;;6214502;23;20013;-77
2024/03/03 03:44:23;;;;;;;13.40;10.80;;;;;;;;;;6213764;23;20025;-77
2024/03/03 03:46:49;;;;;;;19.80;11.00;;;;;;;;;;6188804;23;20016;-77
2024/03/03 03:49:15;;;;;;;12.38;9.75;;;;;;;;;;6213352;23;20020;-77
2024/03/03 03:51:41;;;;;;;18.63;10.55;;;;;;;;;;6191470;23;20013;-78
2024/03/03 03:54:07;;;;;;;21.80;11.85;;;;;;;;;;6190564;23;20783;-78
2024/03/03 03:56:33;;;;;;;16.50;9.73;;;;;;;;;;6193664;23;20013;-79
2024/03/03 03:59:00;;;;;;;25.05;10.95;;;;;;;;;;6207026;23;20043;-81
2024/03/03 04:01:27;;;;;;;18.33;11.48;;;;;;;;;;6204718;23;20020;-81
2024/03/03 04:04:01;;;;;;;21.55;10.95;;;;;;;;;;6229718;23;20031;-81
2024/03/03 04:06:30;;;;;;;23.92;12.00;;;;;;;;;;6231901;23;20016;-80
2024/03/03 04:09:04;;;;;;;18.27;10.98;;;;;;;;;;6227865;23;20021;-78
2024/03/03 04:11:36;;;;;;;19.77;11.60;;;;;;;;;;6191839;23;20005;-78
2024/03/03 04:14:05;;;;;;;20.15;11.85;;;;;;;;;;6186581;23;20094;-78
2024/03/03 04:16:34;;;;;;;23.90;11.50;;;;;;;;;;6216761;23;20008;-77
2024/03/03 04:19:00;;;;;;;25.83;12.82;;;;;;;;;;6188398;23;20013;-77
2024/03/03 04:21:33;;;;;;;24.65;12.70;;;;;;;;;;6189535;23;20008;-78
2024/03/03 04:24:01;;;;;;;18.33;11.15;;;;;;;;;;6212874;23;20032;-78
2024/03/03 04:26:27;;;;;;;32.55;13.38;;;;;;;;;;6214435;23;20005;-78
2024/03/03 04:28:56;;;;;;;23.35;12.23;;;;;;;;;;6187786;23;20140;-78
2024/03/03 04:31:25;;;;;;;29.15;14.25;;;;;;;;;;6186573;23;20017;-77
2024/03/03 04:33:57;;;;;;;21.55;11.55;;;;;;;;;;6186449;23;20487;-77
2024/03/03 04:36:25;;;;;;;14.65;9.05;;;;;;;;;;6164515;23;20009;-77
2024/03/03 04:38:52;;;;;;;18.63;11.52;;;;;;;;;;6188349;23;20465;-76
2024/03/03 04:41:28;;;;;;;19.38;10.88;;;;;;;;;;6213878;23;20445;-77
2024/03/03 04:43:59;;;;;;;;;;;;;;;;;;6197693;23;20107;-77
2024/03/03 04:46:25;;;;;;;27.52;11.07;;;;;;;;;;6197700;23;19915;-77
2024/03/03 04:48:54;;;;;;;20.15;9.98;;;;;;;;;;6211607;23;20008;-77
2024/03/03 04:51:23;;;;;;;17.13;11.25;;;;;;;;;;6187474;23;20449;-77
2024/03/03 04:53:52;;;;;;;9.13;7.63;;;;;;;;;;6200601;23;20110;-77
2024/03/03 04:56:27;;;;;;;9.80;8.43;;;;;;;;;;6211936;23;20088;-77
2024/03/03 04:58:53;;;;;;;10.48;6.60;;;;;;;;;;6210963;23;20226;-76
2024/03/03 05:01:22;;;;;;;7.13;5.85;;;;;;;;;;6212056;23;20047;-77
2024/03/03 05:03:54;;;;;;;14.27;6.80;;;;;;;;;;6187145;23;20028;-77
2024/03/03 05:06:28;;;;;;;21.42;7.72;;;;;;;;;;6216782;23;20016;-77
2024/03/03 05:08:54;;;;;;;7.53;5.88;;;;;;;;;;6217953;23;20012;-75
2024/03/03 05:11:20;;;;;;;11.55;7.78;;;;;;;;;;6211659;23;20027;-76
2024/03/03 05:13:48;;;;;;;21.90;9.05;;;;;;;;;;6210028;23;20021;-77
2024/03/03 05:16:16;;;;;;;10.85;6.90;;;;;;;;;;6213913;23;20015;-78
2024/03/03 05:18:45;;;;;;;13.57;8.52;;;;;;;;;;6162129;23;20338;-76
2024/03/03 05:21:19;;;;;;;8.07;6.30;;;;;;;;;;6212825;23;20096;-77
2024/03/03 05:24:06;;;;;;;11.27;7.93;;;;;;;;;;6174828;23;20107;-77
2024/03/03 05:26:32;;;;;;;11.07;6.75;;;;;;;;;;6211855;23;20039;-77
2024/03/03 05:29:03;;;;;;;18.73;9.18;;;;;;;;;;6187004;23;20008;-77
2024/03/03 05:31:41;;;;;;;10.50;7.80;;;;;;;;;;6205674;23;20013;-82
2024/03/03 05:34:15;;;;;;;11.75;6.85;;;;;;;;;;6226454;23;20068;-82
2024/03/03 05:36:48;;;;;;;19.52;7.88;;;;;;;;;;6214007;23;20036;-81
2024/03/03 05:39:21;;;;;;;12.80;7.95;;;;;;;;;;6237481;23;20012;-80
2024/03/03 05:41:50;;;;;;;16.25;11.90;;;;;;;;;;6207858;23;20025;-80
2024/03/03 05:44:37;;;;;;;15.15;8.73;;;;;;;;;;6230843;23;20035;-81
2024/03/03 05:47:05;;;;;;;16.80;8.93;;;;;;;;;;6236695;23;20016;-81
2024/03/03 05:49:35;;;;;;;17.73;8.20;;;;;;;;;;6188861;23;20027;-81
2024/03/03 05:52:11;;;;;;;10.35;8.30;;;;;;;;;;6238273;23;19996;-81
2024/03/03 05:54:49;;;;;;;8.55;7.80;;;;;;;;;;6236991;22;20015;-82
2024/03/03 05:57:15;;;;;;;17.67;8.30;;;;;;;;;;6267537;22;19992;-80
2024/03/03 06:02:40;;;;;;;14.35;8.85;;;;;;;;;;6273257;22;20431;-81
2024/03/03 06:05:09;;;;;;;15.93;9.07;;;;;;;;;;6222711;22;20011;-82
2024/03/03 06:07:39;;;;;;;11.73;8.02;;;;;;;;;;6297498;22;20007;-82
2024/03/03 06:10:09;;;;;;;7.72;6.47;;;;;;;;;;6245603;22;20031;-81
2024/03/03 06:12:35;;;;;;;12.85;7.95;;;;;;;;;;6296462;22;20076;-82
2024/03/03 06:15:19;;;;;;;15.85;9.30;;;;;;;;;;6242084;22;20004;-82
2024/03/03 06:21:02;;;;;;;18.40;8.00;;;;;;;;;;6293050;22;20459;-82
2024/03/03 06:23:28;;;;;;;12.85;7.47;;;;;;;;;;6258399;22;20028;-80
2024/03/03 06:28:44;;;;;;;10.57;8.05;;;;;;;;;;6271604;22;20015;-84
2024/03/03 06:31:11;;;;;;;17.50;9.05;;;;;;;;;;6251833;22;19996;-85
2024/03/03 06:36:27;;;;;;;11.43;6.63;;;;;;;;;;6284872;22;20019;-83
2024/03/03 06:38:52;;;;;;;13.18;7.78;;;;;;;;;;6303737;22;20018;-84
2024/03/03 06:41:21;;;;;;;12.45;7.93;;;;;;;;;;6304256;22;20003;-82
2024/03/03 06:43:47;;;;;;;15.77;8.88;;;;;;;;;;6302925;22;20023;-82
2024/03/03 06:46:13;;;;;;;16.40;8.32;;;;;;;;;;6302806;22;20075;-83
2024/03/03 06:48:39;;;;;;;17.50;7.30;;;;;;;;;;6225286;22;20022;-84
2024/03/03 06:51:05;;;;;;;17.63;8.95;;;;;;;;;;6247371;22;20027;-84
2024/03/03 06:53:31;;;;;;;11.73;7.95;;;;;;;;;;6274283;22;20011;-83
2024/03/03 06:55:57;;;;;;;11.75;6.82;;;;;;;;;;6305303;22;20075;-82
2024/03/03 06:58:23;;;;;;;7.82;6.50;;;;;;;;;;6247321;22;21681;-82
2024/03/03 07:00:49;;;;;;;9.45;5.32;;;;;;;;;;6235555;22;20015;-84
2024/03/03 07:06:04;;;;;;;13.27;7.75;;;;;;;;;;6257950;22;20003;-84
2024/03/03 07:11:20;;;;;;;9.75;6.70;;;;;;;;;;6297658;22;20027;-84
2024/03/03 07:13:46;;;;;;;5.38;4.93;;;;;;;;;;6295479;22;20044;-84
2024/03/03 07:16:11;;;;;;;10.13;5.72;;;;;;;;;;6255718;22;20202;-83
2024/03/03 07:19:03;;;;;;;9.15;7.45;;;;;;;;;;6226374;22;20319;-79
2024/03/03 07:24:19;;;;;;;12.65;6.47;;;;;;;;;;6271565;22;20024;-83
2024/03/03 07:26:45;;;;;;;12.88;6.97;;;;;;;;;;6163112;23;20108;-81
2024/03/03 07:29:11;;;;;;;14.18;7.57;;;;;;;;;;6263854;23;20011;-81
2024/03/03 07:31:37;;;;;;;10.48;6.28;;;;;;;;;;6266530;22;20012;-80
2024/03/03 07:34:03;;;;;;;12.00;6.60;;;;;;;;;;6266010;23;20066;-83
2024/03/03 07:36:29;;;;;;;11.10;7.78;;;;;;;;;;6240046;23;20016;-83
2024/03/03 07:38:55;;;;;;;12.23;7.20;;;;;;;;;;6212695;23;20034;-83
2024/03/03 07:41:21;;;;;;;8.85;6.95;;;;;;;;;;6208286;23;20015;-82
2024/03/03 07:43:47;;;;;;;13.38;6.43;;;;;;;;;;6274895;22;20016;-83
2024/03/03 07:46:13;;;;;;;7.85;6.93;;;;;;;;;;6269620;22;20022;-82
2024/03/03 07:48:39;;;;;;;10.32;6.88;;;;;;;;;;6267852;22;20007;-83
2024/03/03 07:51:06;;;;;;;14.00;5.57;;;;;;;;;;6301454;22;20016;-84
2024/03/03 07:53:38;;;;;;;9.85;7.05;;;;;;;;;;6301176;22;20004;-84
2024/03/03 07:56:04;;;;;;;8.80;6.97;;;;;;;;;;6224516;22;20030;-82
2024/03/03 07:58:36;;;;;;;9.95;7.32;;;;;;;;;;6301920;22;20359;-84
2024/03/03 08:01:04;;;;;;;6.20;5.65;;;;;;;;;;6302274;22;20030;-83
2024/03/03 08:03:30;;;;;;;9.00;6.75;;;;;;;;;;6270239;22;20020;-83
2024/03/03 08:05:56;;;;;;;9.32;7.45;;;;;;;;;;6291866;22;20026;-83
2024/03/03 08:08:22;;;;;;;13.45;6.05;;;;;;;;;;6255421;22;20042;-80
2024/03/03 08:10:50;;;;;;;15.10;6.80;;;;;;;;;;6254182;22;20008;-81
2024/03/03 08:13:16;;;;;;;9.85;6.45;;;;;;;;;;6221863;22;20012;-80
2024/03/03 08:15:43;;;;;;;8.98;5.53;;;;;;;;;;6223247;22;20016;-81
2024/03/03 08:18:08;;;;;;;9.95;6.15;;;;;;;;;;6223220;22;20096;-81
2024/03/03 08:20:34;;;;;;;9.45;6.28;;;;;;;;;;6263042;22;20069;-82
2024/03/03 08:23:00;;;;;;;6.90;5.90;;;;;;;;;;6295204;22;20020;-84
2024/03/03 08:25:31;;;;;;;14.43;6.13;;;;;;;;;;6252583;22;20015;-85
2024/03/03 08:28:05;;;;;;;13.02;6.32;;;;;;;;;;6254328;22;20038;-85
2024/03/03 08:30:31;;;;;;;10.25;6.15;;;;;;;;;;6305490;22;19995;-85
2024/03/03 08:35:55;;;;;;;11.23;6.47;;;;;;;;;;6211794;23;20064;-86
2024/03/03 08:38:21;;;;;;;9.10;6.47;;;;;;;;;;6211226;23;20017;-84
2024/03/03 08:40:47;;;;;;;10.60;6.60;;;;;;;;;;6209395;23;20013;-83
2024/03/03 08:43:13;;;;;;;7.30;5.90;;;;;;;;;;6182827;23;20013;-77
2024/03/03 08:45:39;;;;;;;12.10;6.05;;;;;;;;;;6163448;23;20040;-80
2024/03/03 08:48:05;;;;;;;8.73;5.70;;;;;;;;;;6186728;23;20017;-76
2024/03/03 08:50:31;;;;;;;7.13;6.07;;;;;;;;;;6178338;23;20360;-75
2024/03/03 08:52:57;;;;;;;11.27;7.28;;;;;;;;;;6182298;23;20017;-76
2024/03/03 08:55:23;;;;;;;14.82;7.20;;;;;;;;;;6152283;23;20492;-77
2024/03/03 08:57:50;;;;;;;9.57;6.25;;;;;;;;;;6180598;23;20099;-75
2024/03/03 09:00:16;;;;;;;10.05;6.47;;;;;;;;;;6155468;23;20457;-77
2024/03/03 09:02:42;;;;;;;5.75;5.13;;;;;;;;;;6179814;23;20008;-72
2024/03/03 09:05:09;;;;;;;6.63;5.50;;;;;;;;;;6153432;23;20894;-74
2024/03/03 09:07:35;;;;;;;8.73;4.80;;;;;;;;;;6182263;23;20311;-75
2024/03/03 09:10:01;;;;;;;6.00;5.20;;;;;;;;;;6154451;23;20096;-75
2024/03/03 09:12:28;;;;;;;10.45;6.32;;;;;;;;;;6178856;23;20017;-74
2024/03/03 09:14:54;;;;;;;6.93;5.15;;;;;;;;;;6179078;23;20044;-74
2024/03/03 09:17:20;;;;;;;6.18;4.72;;;;;;;;;;6180180;23;20027;-73
2024/03/03 09:19:46;;;;;;;12.05;5.97;;;;;;;;;;6153808;23;20359;-73
2024/03/03 09:22:13;;;;;;;7.15;4.57;;;;;;;;;;6128431;23;20036;-73
2024/03/03 09:24:46;;;;;;;7.43;5.95;;;;;;;;;;6177589;23;20025;-71
2024/03/03 09:27:12;;;;;;;9.07;6.30;;;;;;;;;;6181658;23;20032;-81
2024/03/03 09:29:38;;;;;;;9.15;5.95;;;;;;;;;;6179180;23;20021;-77
2024/03/03 09:38:12;;;;;;;7.72;5.95;;;;;;;4.37;61.52;101630.16;5181623;27;20142;-80
2024/03/03 09:40:38;;;;;;;9.00;7.47;;;;;;;-142.02;100.00;61695.09;5142378;27;20045;-78
2024/03/03 09:43:08;;;;;;;12.80;6.47;;;;;;;4.37;61.52;101630.16;5131835;27;20121;-82
2024/03/03 09:45:35;;;;;;;11.32;7.45;;;;;;;4.76;62.13;101620.59;5086622;28;20409;-79
2024/03/03 09:48:02;;;;;;;18.15;6.72;;;;;;;5.02;61.04;101623.97;5118563;27;20601;-84
2024/03/03 09:50:28;;;;;;;10.43;6.80;;;;;;;4.82;62.12;101621.44;5091058;28;20405;-80
2024/03/03 09:52:57;;;;;;;16.80;7.95;;;;;;;4.92;61.78;101623.13;5081765;28;20020;-83
2024/03/03 09:55:26;;;;;;;10.60;6.47;;;;;;;4.96;62.07;101614.50;5120493;27;20050;-81
2024/03/03 09:57:52;;;;;;;14.05;6.03;;;;;;;5.06;61.65;101605.84;5110412;27;20043;-81
2024/03/03 10:00:19;;;;;;;13.68;7.40;;;;;;;4.37;63.01;101606.03;5121998;27;20139;-80
2024/03/03 10:02:45;;;;;;;8.32;5.80;;;;;;;4.33;63.94;101604.28;5108669;28;20040;-82
2024/03/03 10:05:11;;;;;;;7.90;4.90;;;;;;;4.18;62.83;101608.63;5120671;27;20048;-81
2024/03/03 10:07:40;;;;;;;5.32;4.82;;;;;;;4.13;62.23;101619.81;5131087;27;20039;-80
2024/03/03 10:10:08;;;;;;;6.10;5.15;;;;;;;4.36;63.04;101601.69;5120087;27;20051;-82
2024/03/03 10:12:37;;;;;;;5.97;4.53;;;;;;;4.38;62.28;101607.75;5098966;27;20050;-83
2024/03/03 10:15:04;;;;;;;6.50;4.75;;;;;;;4.45;61.80;101607.72;5115650;27;20063;-81
2024/03/03 10:17:31;;;;;;;10.70;5.22;;;;;;;4.77;61.69;101605.09;5121930;27;20095;-81
2024/03/03 10:20:11;;;;;;;11.13;7.00;;;;;;;5.10;62.22;101602.38;5127914;27;20036;-83
2024/03/03 10:22:40;;;;;;;7.97;5.55;;;;;;;4.94;61.59;101592.91;5123181;27;20038;-82
2024/03/03 10:25:11;;;;;;;9.65;5.50;;;;;;;5.49;60.64;101600.44;5117576;27;20070;-82
2024/03/03 10:27:39;;;;;;;6.20;4.50;;;;;;;5.36;59.61;101593.59;5125356;27;20036;-82
2024/03/03 10:30:09;;;;;;;5.53;4.90;;;;;;;5.54;59.21;101590.88;5101487;27;20123;-82
2024/03/03 10:32:39;;;;;;;7.90;6.13;;;;;;;5.54;59.21;101590.88;5114891;27;20114;-84
2024/03/03 10:35:13;;;;;;;9.35;5.82;;;;;;;5.23;60.17;101587.63;5118449;28;20079;-82
2024/03/03 10:37:53;;;;;;;4.82;4.43;;;;;;;5.32;60.17;101599.66;5123774;27;20044;-83
2024/03/03 10:40:23;;;;;;;10.85;4.80;;;;;;;5.11;59.81;101590.25;5114316;27;20118;-82
2024/03/03 10:42:49;;;;;;;7.32;5.82;;;;;;;5.41;59.16;101597.00;5108047;28;20036;-80
2024/03/03 10:45:15;;;;;;;11.40;5.55;;;;;;;5.89;57.71;101588.09;5127773;27;20039;-81
2024/03/03 10:47:45;;;;;;;5.43;4.47;;;;;;;5.36;59.40;101596.19;5112502;27;20078;-81
2024/03/03 10:50:15;;;;;;;2.67;2.57;;;;;;;5.06;58.90;101587.72;5124715;27;20044;-82
2024/03/03 10:52:42;;;;;;;8.40;5.10;;;;;;;4.90;58.82;101588.66;5120411;27;20031;-80
2024/03/03 10:55:10;;;;;;;4.40;4.05;;;;;;;5.44;59.05;101590.09;5108363;28;20043;-81
2024/03/03 10:57:36;;;;;;;6.40;5.30;;;;;;;5.22;59.82;101591.94;5117832;28;20050;-81
2024/03/03 11:00:03;;;;;;;8.30;4.57;;;;;;;5.15;59.79;101587.66;5096159;28;20040;-82
2024/03/03 11:02:30;;;;;;;7.13;4.47;;;;;;;5.19;59.91;101591.97;5075366;28;20122;-81
2024/03/03 11:05:02;;;;;;;7.35;5.03;;;;;;;5.12;59.97;101590.28;5082872;28;20197;-82
2024/03/03 11:07:30;;;;;;;6.93;5.28;;;;;;;5.09;59.59;101590.28;5084790;28;20044;-81
2024/03/03 11:09:57;;;;;;;12.43;5.55;;;;;;;5.25;59.22;101581.56;5072307;28;20039;-82
2024/03/03 11:12:32;;;;;;;5.28;3.53;;;;;;;5.06;58.33;101585.13;5073880;28;20097;-81
2024/03/03 11:15:04;;;;;;;6.75;4.68;;;;;;;5.10;58.80;101586.84;5080075;28;20138;-82
2024/03/03 11:17:43;;;;;;;7.85;5.20;;;;;;;5.29;60.36;101587.59;5092157;28;20040;-82
2024/03/03 11:20:14;;;;;;;4.10;3.72;;;;;;;5.34;59.37;101582.38;5061355;28;20060;-81
2024/03/03 11:22:45;;;;;;;;;;;;;;;5.36;58.90;101584.13;5085081;28;20089;-82
2024/03/03 11:25:15;;;;;;;8.48;5.72;;;;;;;5.44;59.65;101581.47;5125169;27;19931;-82
2024/03/03 11:27:42;;;;;;;12.13;7.72;;;;;;;5.42;60.60;101554.72;5100470;27;20031;-82
2024/03/03 11:30:10;;;;;;;7.95;4.40;;;;;;;5.54;60.17;101583.13;5128055;27;20047;-82
2024/03/03 11:32:36;;;;;;;8.70;6.85;;;;;;;5.62;60.58;101571.84;5118901;27;20091;-81
2024/03/03 11:35:03;;;;;;;13.82;7.53;;;;;;;5.89;60.09;101578.56;5081181;28;20071;-82
2024/03/03 11:38:09;;;;;;;14.23;6.85;;;;;;;5.90;60.15;101575.13;5095275;27;20527;-81
2024/03/03 11:40:35;;;;;;;15.65;8.35;;;;;;;5.73;61.11;101574.34;5104579;27;20091;-81
2024/03/03 11:43:02;;;;;;;11.48;6.32;;;;;;;5.52;61.10;101566.75;5119197;27;20043;-80
2024/03/03 11:46:18;;;;;;;12.27;6.97;;;;;;;5.75;61.22;101567.44;5115218;27;20051;-81
2024/03/03 11:48:45;;;;;;;7.35;5.00;;;;;;;5.47;59.31;101560.72;5099861;27;20057;-81
2024/03/03 11:51:54;;;;;;;10.70;6.97;;;;;;;5.48;60.97;101573.66;5115851;28;20046;-82
2024/03/03 11:54:37;;;;;;;11.30;6.60;;;;;;;5.54;60.86;101559.81;5113351;27;20059;-82
2024/03/03 11:57:09;;;;;;;9.20;6.90;;;;;;;5.50;61.68;101565.88;5096866;28;20065;-81
2024/03/03 12:00:26;;;;;;;11.63;7.20;;;;;;;5.58;61.99;101564.09;5079532;28;20027;-82
2024/03/03 12:02:54;;;;;;;11.65;7.50;;;;;;;5.65;61.91;101566.66;5076245;27;20053;-82
2024/03/03 12:05:21;;;;;;;7.40;5.97;;;;;;;5.46;62.03;101549.53;5084939;28;20059;-81
2024/03/03 12:07:49;;;;;;;9.63;5.65;;;;;;;5.27;61.56;101567.78;5093797;28;20062;-81
2024/03/03 12:10:22;;;;;;;9.38;6.88;;;;;;;5.28;61.39;101569.47;5104675;28;20516;-79
2024/03/03 12:12:50;;;;;;;13.35;6.65;;;;;;;5.42;62.24;101567.66;5056602;28;20133;-81
2024/03/03 12:15:44;;;;;;;10.32;6.80;;;;;;;5.36;61.68;101567.72;5100721;28;20051;-81
2024/03/03 12:18:32;;;;;;;7.22;6.53;;;;;;;5.50;61.91;101571.91;5087842;28;20532;-82
2024/03/03 12:20:58;;;;;;;14.30;6.13;;;;;;;5.35;61.63;101568.56;5066609;28;20048;-81
2024/03/03 12:23:25;;;;;;;13.30;6.38;;;;;;;5.51;61.39;101578.81;5106047;27;20080;-81
2024/03/03 12:26:10;;;;;;;7.75;6.03;;;;;;;5.44;61.33;101573.69;5116977;27;20457;-82
2024/03/03 12:28:38;;;;;;;13.70;6.07;;;;;;;5.44;61.51;101563.31;5132254;27;20042;-80
2024/03/03 12:31:04;;;;;;;9.48;5.38;;;;;;;5.70;60.79;101571.78;5100987;27;20035;-83
2024/03/03 12:33:33;;;;;;;10.20;5.75;;;;;;;5.49;61.30;101569.34;5095662;27;26350;-80
2024/03/03 12:36:25;;;;;;;9.10;6.20;;;;;;;-142.02;100.00;61695.09;5124709;27;20115;-81
2024/03/03 12:38:52;;;;;;;11.05;5.95;;;;;;;-142.02;100.00;61695.09;5094623;27;20031;-82
2024/03/03 12:41:21;;;;;;;14.55;5.68;;;;;;;-142.02;100.00;61695.09;5078249;27;20031;-83
2024/03/03 12:43:48;;;;;;;11.05;5.47;;;;;;;-142.02;100.00;61695.09;5096040;28;20094;-81
2024/03/03 12:46:15;;;;;;;10.57;4.63;;;;;;;-142.02;100.00;61695.09;5113453;27;20054;-83
2024/03/03 12:48:45;;;;;;;10.90;5.38;;;;;;;-142.02;100.00;61695.09;5134686;27;20047;-82
2024/03/03 12:51:13;;;;;;;13.02;5.38;;;;;;;-142.02;100.00;61695.09;5123315;28;20043;-83
2024/03/03 12:53:40;;;;;;;7.53;4.20;;;;;;;-142.02;100.00;61695.09;5088624;28;20063;-82
2024/03/03 12:56:24;;;;;;;10.52;6.28;;;;;;;-142.02;100.00;61695.09;5100377;27;20413;-82
2024/03/03 12:58:52;;;;;;;10.10;6.47;;;;;;;-142.02;100.00;61695.09;5110058;27;20536;-83
2024/03/03 13:01:18;;;;;;;5.80;4.80;;;;;;;-142.02;100.00;61695.09;5120261;27;20038;-81
2024/03/03 13:03:53;;;;;;;6.40;4.95;;;;;;;-142.02;100.00;61695.09;5112676;27;20485;-81
2024/03/03 13:06:21;;;;;;;4.15;3.47;;;;;;;-142.02;100.00;61695.09;5119944;27;20068;-82
2024/03/03 13:08:48;;;;;;;6.45;5.15;;;;;;;-142.02;100.00;61695.09;5094893;27;20497;-83
2024/03/03 13:11:15;;;;;;;5.20;4.30;;;;;;;-142.02;100.00;61695.09;5094408;28;20084;-82
2024/03/03 13:13:42;;;;;;;11.60;6.45;;;;;;;-142.02;100.00;61695.09;5139202;27;20194;-83
2024/03/03 13:16:09;;;;;;;7.50;5.40;;;;;;;-142.02;100.00;61695.09;5081448;28;20592;-79
2024/03/03 13:28:25;;;;;;;11.63;6.57;;;;;;;-142.02;100.00;61695.09;5089535;23;20054;-82
2024/03/03 13:31:17;;;;;;;10.35;5.75;;;;;;;-142.02;100.00;61695.09;5322892;22;20044;-84
2024/03/03 13:33:45;;;;;;;6.55;4.82;;;;;;;-142.02;100.00;61695.09;5039317;28;20037;-83
2024/03/03 13:36:14;;;;;;;9.02;4.57;;;;;;;-142.02;100.00;61695.09;5060059;22;20046;-83
2024/03/03 13:38:41;;;;;;;8.70;5.40;;;;;;;-142.02;100.00;61695.09;5123074;23;20053;-82
2024/03/03 13:47:36;;;;;;;7.32;4.65;;;;;;;-142.02;100.00;61695.09;5431476;22;20057;-79
2024/03/03 13:50:33;;;;;;;6.68;4.57;;;;;;;-142.02;100.00;61695.09;5018356;28;20038;-78
2024/03/03 13:53:00;;;;;;;6.05;4.50;;;;;;;-142.02;100.00;61695.09;4969822;28;20068;-81
2024/03/03 13:55:26;;;;;;;4.97;3.97;;;;;;;-142.02;100.00;61695.09;4957182;28;20144;-81
2024/03/03 13:58:15;;;;;;;15.30;7.65;;;;;;;-142.02;100.00;61695.09;4977460;28;20047;-82
2024/03/03 14:00:47;;;;;;;10.73;8.05;;;;;;;-142.02;100.00;61695.09;5004162;28;20042;-82
2024/03/03 14:03:19;;;;;;;5.07;4.60;;;;;;;-142.02;100.00;61695.09;5004342;28;20037;-81
2024/03/03 14:05:45;;;;;;;13.70;6.70;;;;;;;-142.02;100.00;61695.09;4988090;28;20420;-77
2024/03/03 14:08:12;;;;;;;6.00;5.40;;;;;;;-142.02;100.00;61695.09;4987209;28;20052;-76
2024/03/03 14:10:39;;;;;;;6.93;5.10;;;;;;;-142.02;100.00;61695.09;4971917;28;20053;-76
2024/03/03 14:13:05;;;;;;;9.18;5.43;;;;;;;-142.02;100.00;61695.09;4965082;28;20037;-77
2024/03/03 14:15:31;;;;;;;5.15;4.57;;;;;;;-142.02;100.00;61695.09;4943166;28;20045;-77